sensor_id;sensor_type;location;lat;lon;timestamp;P1;durP1;ratioP1;P2;durP2;ratioP2
2684;SDS011;1352;48.446;9.156;2022-11-15T00:00:35;2.80;;;2.10;;
2684;SDS011;1352;48.446;9.156;2022-11-15T00:03:02;2.67;;;2.37;;
2684;SDS011;1352;48.446;9.156;2022-11-15T00:05:33;2.40;;;2.00;;
2684;SDS011;1352;48.446;9.156;2022-11-15T00:08:01;3.23;;;2.60;;
2684;SDS011;1352;48.446;9.156;2022-11-15T00:10:28;2.70;;;2.40;;
2684;SDS011;1352;48.446;9.156;2022-11-15T00:12:55;2.63;;;2.40;;
2684;SDS011;1352;48.446;9.156;2022-11-15T00:15:22;2.90;;;2.10;;
2684;SDS011;1352;48.446;9.156;2022-11-15T00:17:49;2.70;;;2.07;;
2684;SDS011;1352;48.446;9.156;2022-11-15T00:20:17;2.27;;;2.07;;
2684;SDS011;1352;48.446;9.156;2022-11-15T00:22:45;4.13;;;2.33;;
2684;SDS011;1352;48.446;9.156;2022-11-15T00:25:12;2.20;;;2.00;;
2684;SDS011;1352;48.446;9.156;2022-11-15T00:27:42;3.97;;;2.73;;
2684;SDS011;1352;48.446;9.156;2022-11-15T00:30:10;2.77;;;2.57;;
2684;SDS011;1352;48.446;9.156;2022-11-15T00:32:38;2.30;;;2.10;;
2684;SDS011;1352;48.446;9.156;2022-11-15T00:35:05;2.50;;;2.30;;
2684;SDS011;1352;48.446;9.156;2022-11-15T00:37:36;3.37;;;2.43;;
2684;SDS011;1352;48.446;9.156;2022-11-15T00:40:05;3.63;;;2.80;;
2684;SDS011;1352;48.446;9.156;2022-11-15T00:42:35;3.17;;;2.70;;
2684;SDS011;1352;48.446;9.156;2022-11-15T00:45:02;4.30;;;2.37;;
2684;SDS011;1352;48.446;9.156;2022-11-15T00:47:30;3.50;;;2.77;;
2684;SDS011;1352;48.446;9.156;2022-11-15T00:49:59;2.93;;;2.70;;
2684;SDS011;1352;48.446;9.156;2022-11-15T00:52:26;2.87;;;2.67;;
2684;SDS011;1352;48.446;9.156;2022-11-15T00:54:53;3.43;;;3.13;;
2684;SDS011;1352;48.446;9.156;2022-11-15T00:57:22;3.90;;;2.80;;
2684;SDS011;1352;48.446;9.156;2022-11-15T00:59:49;2.93;;;2.63;;
2684;SDS011;1352;48.446;9.156;2022-11-15T01:02:16;3.00;;;2.70;;
2684;SDS011;1352;48.446;9.156;2022-11-15T01:04:46;3.30;;;3.00;;
2684;SDS011;1352;48.446;9.156;2022-11-15T01:07:13;3.23;;;2.93;;
2684;SDS011;1352;48.446;9.156;2022-11-15T01:09:40;4.00;;;2.60;;
2684;SDS011;1352;48.446;9.156;2022-11-15T01:12:07;2.90;;;2.57;;
2684;SDS011;1352;48.446;9.156;2022-11-15T01:14:36;3.10;;;2.80;;
2684;SDS011;1352;48.446;9.156;2022-11-15T01:17:03;2.90;;;2.70;;
2684;SDS011;1352;48.446;9.156;2022-11-15T01:19:30;2.90;;;2.70;;
2684;SDS011;1352;48.446;9.156;2022-11-15T01:21:57;2.87;;;2.50;;
2684;SDS011;1352;48.446;9.156;2022-11-15T01:24:24;3.70;;;2.97;;
2684;SDS011;1352;48.446;9.156;2022-11-15T01:26:51;4.57;;;2.80;;
2684;SDS011;1352;48.446;9.156;2022-11-15T01:29:18;3.40;;;2.60;;
2684;SDS011;1352;48.446;9.156;2022-11-15T01:31:46;3.40;;;3.10;;
2684;SDS011;1352;48.446;9.156;2022-11-15T01:34:14;4.67;;;3.10;;
2684;SDS011;1352;48.446;9.156;2022-11-15T01:36:41;4.20;;;3.20;;
2684;SDS011;1352;48.446;9.156;2022-11-15T01:39:08;3.23;;;2.93;;
2684;SDS011;1352;48.446;9.156;2022-11-15T01:41:35;3.07;;;2.80;;
2684;SDS011;1352;48.446;9.156;2022-11-15T01:47:12;3.73;;;3.43;;
2684;SDS011;1352;48.446;9.156;2022-11-15T01:49:44;3.40;;;3.10;;
2684;SDS011;1352;48.446;9.156;2022-11-15T01:52:18;3.57;;;3.27;;
2684;SDS011;1352;48.446;9.156;2022-11-15T01:54:47;4.87;;;2.60;;
2684;SDS011;1352;48.446;9.156;2022-11-15T01:57:17;3.77;;;3.17;;
2684;SDS011;1352;48.446;9.156;2022-11-15T01:59:44;2.60;;;2.40;;
2684;SDS011;1352;48.446;9.156;2022-11-15T02:02:13;4.30;;;2.50;;
2684;SDS011;1352;48.446;9.156;2022-11-15T02:04:41;3.20;;;2.80;;
2684;SDS011;1352;48.446;9.156;2022-11-15T02:07:10;3.67;;;2.97;;
2684;SDS011;1352;48.446;9.156;2022-11-15T02:09:39;3.43;;;2.80;;
2684;SDS011;1352;48.446;9.156;2022-11-15T02:12:07;3.47;;;3.17;;
2684;SDS011;1352;48.446;9.156;2022-11-15T02:14:36;2.87;;;2.23;;
2684;SDS011;1352;48.446;9.156;2022-11-15T02:17:08;2.90;;;2.57;;
2684;SDS011;1352;48.446;9.156;2022-11-15T02:22:54;2.03;;;1.80;;
2684;SDS011;1352;48.446;9.156;2022-11-15T02:25:40;3.53;;;1.80;;
2684;SDS011;1352;48.446;9.156;2022-11-15T02:28:27;3.07;;;2.23;;
2684;SDS011;1352;48.446;9.156;2022-11-15T02:31:10;1.80;;;1.70;;
2684;SDS011;1352;48.446;9.156;2022-11-15T02:33:46;5.00;;;2.00;;
2684;SDS011;1352;48.446;9.156;2022-11-15T02:36:22;2.87;;;2.67;;
2684;SDS011;1352;48.446;9.156;2022-11-15T02:39:02;2.33;;;2.13;;
2684;SDS011;1352;48.446;9.156;2022-11-15T02:41:35;2.67;;;2.20;;
2684;SDS011;1352;48.446;9.156;2022-11-15T02:44:12;2.23;;;1.80;;
2684;SDS011;1352;48.446;9.156;2022-11-15T02:46:45;2.30;;;2.00;;
2684;SDS011;1352;48.446;9.156;2022-11-15T02:49:35;3.23;;;1.90;;
2684;SDS011;1352;48.446;9.156;2022-11-15T02:52:03;2.10;;;1.90;;
2684;SDS011;1352;48.446;9.156;2022-11-15T02:54:34;3.77;;;2.23;;
2684;SDS011;1352;48.446;9.156;2022-11-15T02:57:02;5.20;;;1.97;;
2684;SDS011;1352;48.446;9.156;2022-11-15T02:59:36;2.13;;;1.63;;
2684;SDS011;1352;48.446;9.156;2022-11-15T03:02:28;5.80;;;2.07;;
2684;SDS011;1352;48.446;9.156;2022-11-15T03:05:09;2.20;;;1.87;;
2684;SDS011;1352;48.446;9.156;2022-11-15T03:07:47;2.23;;;2.03;;
2684;SDS011;1352;48.446;9.156;2022-11-15T03:10:24;1.67;;;1.57;;
2684;SDS011;1352;48.446;9.156;2022-11-15T03:12:59;1.67;;;1.57;;
2684;SDS011;1352;48.446;9.156;2022-11-15T03:15:38;3.43;;;1.90;;
2684;SDS011;1352;48.446;9.156;2022-11-15T03:18:15;1.83;;;1.73;;
2684;SDS011;1352;48.446;9.156;2022-11-15T03:20:46;1.80;;;1.70;;
2684;SDS011;1352;48.446;9.156;2022-11-15T03:23:14;2.00;;;1.90;;
2684;SDS011;1352;48.446;9.156;2022-11-15T03:25:44;2.20;;;2.00;;
2684;SDS011;1352;48.446;9.156;2022-11-15T03:28:18;2.17;;;1.97;;
2684;SDS011;1352;48.446;9.156;2022-11-15T03:30:48;1.63;;;1.53;;
2684;SDS011;1352;48.446;9.156;2022-11-15T03:33:19;3.23;;;1.70;;
2684;SDS011;1352;48.446;9.156;2022-11-15T03:35:48;2.03;;;1.83;;
2684;SDS011;1352;48.446;9.156;2022-11-15T03:38:17;1.93;;;1.80;;
2684;SDS011;1352;48.446;9.156;2022-11-15T03:40:50;1.60;;;1.50;;
2684;SDS011;1352;48.446;9.156;2022-11-15T03:43:29;2.40;;;1.47;;
2684;SDS011;1352;48.446;9.156;2022-11-15T03:46:01;1.80;;;1.70;;
2684;SDS011;1352;48.446;9.156;2022-11-15T03:48:33;3.00;;;1.50;;
2684;SDS011;1352;48.446;9.156;2022-11-15T03:51:03;10.07;;;2.90;;
2684;SDS011;1352;48.446;9.156;2022-11-15T03:53:31;2.30;;;1.90;;
2684;SDS011;1352;48.446;9.156;2022-11-15T03:56:01;2.47;;;2.30;;
2684;SDS011;1352;48.446;9.156;2022-11-15T03:58:28;2.07;;;1.80;;
2684;SDS011;1352;48.446;9.156;2022-11-15T04:00:55;1.73;;;1.50;;
2684;SDS011;1352;48.446;9.156;2022-11-15T04:03:22;1.80;;;1.70;;
2684;SDS011;1352;48.446;9.156;2022-11-15T04:05:54;1.83;;;1.73;;
2684;SDS011;1352;48.446;9.156;2022-11-15T04:08:20;1.80;;;1.67;;
2684;SDS011;1352;48.446;9.156;2022-11-15T04:10:48;2.00;;;1.90;;
2684;SDS011;1352;48.446;9.156;2022-11-15T04:13:15;1.93;;;1.83;;
2684;SDS011;1352;48.446;9.156;2022-11-15T04:15:42;1.50;;;1.40;;
2684;SDS011;1352;48.446;9.156;2022-11-15T04:18:09;1.83;;;1.73;;
2684;SDS011;1352;48.446;9.156;2022-11-15T04:20:36;1.90;;;1.80;;
2684;SDS011;1352;48.446;9.156;2022-11-15T04:23:22;2.80;;;2.10;;
2684;SDS011;1352;48.446;9.156;2022-11-15T04:26:13;2.40;;;2.00;;
2684;SDS011;1352;48.446;9.156;2022-11-15T04:28:42;2.53;;;1.33;;
2684;SDS011;1352;48.446;9.156;2022-11-15T04:31:23;1.87;;;1.73;;
2684;SDS011;1352;48.446;9.156;2022-11-15T04:33:50;1.70;;;1.60;;
2684;SDS011;1352;48.446;9.156;2022-11-15T04:36:18;1.87;;;1.70;;
2684;SDS011;1352;48.446;9.156;2022-11-15T04:39:04;2.00;;;1.73;;
2684;SDS011;1352;48.446;9.156;2022-11-15T04:41:31;1.80;;;1.70;;
2684;SDS011;1352;48.446;9.156;2022-11-15T04:43:59;4.70;;;1.80;;
2684;SDS011;1352;48.446;9.156;2022-11-15T04:46:26;2.30;;;2.10;;
2684;SDS011;1352;48.446;9.156;2022-11-15T04:48:54;2.33;;;2.10;;
2684;SDS011;1352;48.446;9.156;2022-11-15T04:51:21;2.27;;;2.00;;
2684;SDS011;1352;48.446;9.156;2022-11-15T04:53:48;1.83;;;1.73;;
2684;SDS011;1352;48.446;9.156;2022-11-15T04:56:16;3.10;;;2.60;;
2684;SDS011;1352;48.446;9.156;2022-11-15T04:58:44;5.93;;;3.03;;
2684;SDS011;1352;48.446;9.156;2022-11-15T05:01:11;2.80;;;2.60;;
2684;SDS011;1352;48.446;9.156;2022-11-15T05:03:40;3.13;;;2.30;;
2684;SDS011;1352;48.446;9.156;2022-11-15T05:06:25;1.83;;;1.73;;
2684;SDS011;1352;48.446;9.156;2022-11-15T05:08:52;3.43;;;2.97;;
2684;SDS011;1352;48.446;9.156;2022-11-15T05:11:20;4.37;;;2.57;;
2684;SDS011;1352;48.446;9.156;2022-11-15T05:13:48;2.20;;;2.00;;
2684;SDS011;1352;48.446;9.156;2022-11-15T05:16:15;2.87;;;2.67;;
2684;SDS011;1352;48.446;9.156;2022-11-15T05:18:42;5.03;;;2.80;;
2684;SDS011;1352;48.446;9.156;2022-11-15T05:21:11;2.60;;;2.40;;
2684;SDS011;1352;48.446;9.156;2022-11-15T05:23:39;3.73;;;2.47;;
2684;SDS011;1352;48.446;9.156;2022-11-15T05:26:08;2.30;;;2.10;;
2684;SDS011;1352;48.446;9.156;2022-11-15T05:28:37;2.60;;;2.40;;
2684;SDS011;1352;48.446;9.156;2022-11-15T05:31:05;2.77;;;2.57;;
2684;SDS011;1352;48.446;9.156;2022-11-15T05:33:34;2.90;;;2.70;;
2684;SDS011;1352;48.446;9.156;2022-11-15T05:36:04;3.77;;;2.30;;
2684;SDS011;1352;48.446;9.156;2022-11-15T05:38:34;2.60;;;2.40;;
2684;SDS011;1352;48.446;9.156;2022-11-15T05:41:01;3.30;;;2.63;;
2684;SDS011;1352;48.446;9.156;2022-11-15T05:43:29;3.00;;;2.63;;
2684;SDS011;1352;48.446;9.156;2022-11-15T05:46:01;8.20;;;2.83;;
2684;SDS011;1352;48.446;9.156;2022-11-15T05:48:31;5.30;;;2.50;;
2684;SDS011;1352;48.446;9.156;2022-11-15T05:50:58;2.60;;;2.37;;
2684;SDS011;1352;48.446;9.156;2022-11-15T05:53:29;2.57;;;2.37;;
2684;SDS011;1352;48.446;9.156;2022-11-15T05:55:57;2.60;;;2.40;;
2684;SDS011;1352;48.446;9.156;2022-11-15T05:58:24;3.17;;;2.60;;
2684;SDS011;1352;48.446;9.156;2022-11-15T06:00:51;6.20;;;2.73;;
2684;SDS011;1352;48.446;9.156;2022-11-15T06:03:20;2.70;;;2.43;;
2684;SDS011;1352;48.446;9.156;2022-11-15T06:05:46;2.57;;;2.37;;
2684;SDS011;1352;48.446;9.156;2022-11-15T06:08:14;3.53;;;2.00;;
2684;SDS011;1352;48.446;9.156;2022-11-15T06:10:41;3.40;;;2.33;;
2684;SDS011;1352;48.446;9.156;2022-11-15T06:13:08;2.60;;;2.40;;
2684;SDS011;1352;48.446;9.156;2022-11-15T06:15:35;4.10;;;1.80;;
2684;SDS011;1352;48.446;9.156;2022-11-15T06:18:02;4.33;;;2.50;;
2684;SDS011;1352;48.446;9.156;2022-11-15T06:20:31;5.23;;;2.30;;
2684;SDS011;1352;48.446;9.156;2022-11-15T06:22:58;3.83;;;2.70;;
2684;SDS011;1352;48.446;9.156;2022-11-15T06:25:26;2.43;;;1.77;;
2684;SDS011;1352;48.446;9.156;2022-11-15T06:27:53;2.10;;;1.90;;
2684;SDS011;1352;48.446;9.156;2022-11-15T06:30:24;2.10;;;1.90;;
2684;SDS011;1352;48.446;9.156;2022-11-15T06:32:58;2.20;;;1.77;;
2684;SDS011;1352;48.446;9.156;2022-11-15T06:35:26;3.67;;;2.23;;
2684;SDS011;1352;48.446;9.156;2022-11-15T06:37:55;2.43;;;1.93;;
2684;SDS011;1352;48.446;9.156;2022-11-15T06:40:22;2.87;;;1.70;;
2684;SDS011;1352;48.446;9.156;2022-11-15T06:42:49;2.10;;;1.90;;
2684;SDS011;1352;48.446;9.156;2022-11-15T06:45:17;3.13;;;2.07;;
2684;SDS011;1352;48.446;9.156;2022-11-15T06:47:44;2.43;;;2.17;;
2684;SDS011;1352;48.446;9.156;2022-11-15T06:50:12;1.83;;;1.73;;
2684;SDS011;1352;48.446;9.156;2022-11-15T06:52:41;2.57;;;2.17;;
2684;SDS011;1352;48.446;9.156;2022-11-15T06:55:10;2.47;;;2.27;;
2684;SDS011;1352;48.446;9.156;2022-11-15T06:57:43;2.43;;;2.23;;
2684;SDS011;1352;48.446;9.156;2022-11-15T07:00:13;2.27;;;2.07;;
2684;SDS011;1352;48.446;9.156;2022-11-15T07:02:41;3.27;;;2.30;;
2684;SDS011;1352;48.446;9.156;2022-11-15T07:05:08;4.80;;;3.07;;
2684;SDS011;1352;48.446;9.156;2022-11-15T07:07:36;2.30;;;2.10;;
2684;SDS011;1352;48.446;9.156;2022-11-15T07:10:03;5.13;;;2.70;;
2684;SDS011;1352;48.446;9.156;2022-11-15T07:12:33;3.00;;;1.90;;
2684;SDS011;1352;48.446;9.156;2022-11-15T07:15:00;2.73;;;2.53;;
2684;SDS011;1352;48.446;9.156;2022-11-15T07:17:27;3.20;;;2.57;;
2684;SDS011;1352;48.446;9.156;2022-11-15T07:19:54;3.07;;;2.50;;
2684;SDS011;1352;48.446;9.156;2022-11-15T07:22:21;2.63;;;1.97;;
2684;SDS011;1352;48.446;9.156;2022-11-15T07:24:48;3.37;;;2.50;;
2684;SDS011;1352;48.446;9.156;2022-11-15T07:27:15;2.77;;;2.03;;
2684;SDS011;1352;48.446;9.156;2022-11-15T07:29:44;2.50;;;2.30;;
2684;SDS011;1352;48.446;9.156;2022-11-15T07:32:11;2.43;;;2.00;;
2684;SDS011;1352;48.446;9.156;2022-11-15T07:34:38;2.67;;;2.30;;
2684;SDS011;1352;48.446;9.156;2022-11-15T07:37:05;2.57;;;2.37;;
2684;SDS011;1352;48.446;9.156;2022-11-15T07:39:32;5.50;;;2.40;;
2684;SDS011;1352;48.446;9.156;2022-11-15T07:41:59;2.90;;;2.70;;
2684;SDS011;1352;48.446;9.156;2022-11-15T07:44:46;2.70;;;2.50;;
2684;SDS011;1352;48.446;9.156;2022-11-15T07:47:13;2.47;;;2.27;;
2684;SDS011;1352;48.446;9.156;2022-11-15T07:49:40;2.90;;;2.30;;
2684;SDS011;1352;48.446;9.156;2022-11-15T07:52:07;5.30;;;2.57;;
2684;SDS011;1352;48.446;9.156;2022-11-15T07:54:34;2.67;;;2.47;;
2684;SDS011;1352;48.446;9.156;2022-11-15T07:57:01;3.07;;;2.87;;
2684;SDS011;1352;48.446;9.156;2022-11-15T07:59:28;2.43;;;2.23;;
2684;SDS011;1352;48.446;9.156;2022-11-15T08:01:57;2.23;;;2.03;;
2684;SDS011;1352;48.446;9.156;2022-11-15T08:04:24;2.43;;;2.23;;
2684;SDS011;1352;48.446;9.156;2022-11-15T08:06:51;2.30;;;2.20;;
2684;SDS011;1352;48.446;9.156;2022-11-15T08:09:18;1.97;;;1.87;;
2684;SDS011;1352;48.446;9.156;2022-11-15T08:11:45;3.43;;;2.57;;
2684;SDS011;1352;48.446;9.156;2022-11-15T08:14:12;4.33;;;1.80;;
2684;SDS011;1352;48.446;9.156;2022-11-15T08:16:39;4.40;;;2.50;;
2684;SDS011;1352;48.446;9.156;2022-11-15T08:19:08;7.90;;;2.20;;
2684;SDS011;1352;48.446;9.156;2022-11-15T08:21:35;2.77;;;1.90;;
2684;SDS011;1352;48.446;9.156;2022-11-15T08:24:02;4.30;;;2.23;;
2684;SDS011;1352;48.446;9.156;2022-11-15T08:26:29;1.90;;;1.73;;
2684;SDS011;1352;48.446;9.156;2022-11-15T08:28:56;2.57;;;2.20;;
2684;SDS011;1352;48.446;9.156;2022-11-15T08:31:23;2.47;;;2.00;;
2684;SDS011;1352;48.446;9.156;2022-11-15T08:33:50;3.50;;;2.43;;
2684;SDS011;1352;48.446;9.156;2022-11-15T08:36:19;2.70;;;2.50;;
2684;SDS011;1352;48.446;9.156;2022-11-15T08:38:46;2.13;;;1.80;;
2684;SDS011;1352;48.446;9.156;2022-11-15T08:41:14;2.00;;;1.80;;
2684;SDS011;1352;48.446;9.156;2022-11-15T08:43:48;4.90;;;2.27;;
2684;SDS011;1352;48.446;9.156;2022-11-15T08:46:15;4.63;;;2.00;;
2684;SDS011;1352;48.446;9.156;2022-11-15T08:48:43;3.20;;;2.20;;
2684;SDS011;1352;48.446;9.156;2022-11-15T08:51:10;3.10;;;2.80;;
2684;SDS011;1352;48.446;9.156;2022-11-15T08:53:39;2.53;;;2.33;;
2684;SDS011;1352;48.446;9.156;2022-11-15T08:56:06;3.20;;;2.90;;
2684;SDS011;1352;48.446;9.156;2022-11-15T08:58:34;4.10;;;2.80;;
2684;SDS011;1352;48.446;9.156;2022-11-15T09:01:01;2.93;;;2.73;;
2684;SDS011;1352;48.446;9.156;2022-11-15T09:03:29;2.93;;;2.73;;
2684;SDS011;1352;48.446;9.156;2022-11-15T09:05:57;3.17;;;2.63;;
2684;SDS011;1352;48.446;9.156;2022-11-15T09:08:25;3.53;;;2.60;;
2684;SDS011;1352;48.446;9.156;2022-11-15T09:10:54;2.90;;;2.70;;
2684;SDS011;1352;48.446;9.156;2022-11-15T09:13:21;3.87;;;3.43;;
2684;SDS011;1352;48.446;9.156;2022-11-15T09:15:48;7.87;;;3.57;;
2684;SDS011;1352;48.446;9.156;2022-11-15T09:18:15;3.17;;;2.90;;
2684;SDS011;1352;48.446;9.156;2022-11-15T09:20:42;3.60;;;3.30;;
2684;SDS011;1352;48.446;9.156;2022-11-15T09:23:09;3.70;;;3.40;;
2684;SDS011;1352;48.446;9.156;2022-11-15T09:25:36;4.23;;;3.83;;
2684;SDS011;1352;48.446;9.156;2022-11-15T09:28:07;4.23;;;3.53;;
2684;SDS011;1352;48.446;9.156;2022-11-15T09:30:34;7.50;;;6.83;;
2684;SDS011;1352;48.446;9.156;2022-11-15T09:33:05;6.00;;;5.47;;
2684;SDS011;1352;48.446;9.156;2022-11-15T09:35:34;7.90;;;7.10;;
2684;SDS011;1352;48.446;9.156;2022-11-15T09:38:01;9.90;;;6.80;;
2684;SDS011;1352;48.446;9.156;2022-11-15T09:40:29;6.40;;;5.80;;
2684;SDS011;1352;48.446;9.156;2022-11-15T09:46:01;5.30;;;4.80;;
2684;SDS011;1352;48.446;9.156;2022-11-15T09:48:44;8.07;;;5.50;;
2684;SDS011;1352;48.446;9.156;2022-11-15T09:51:24;4.53;;;4.13;;
2684;SDS011;1352;48.446;9.156;2022-11-15T09:54:04;8.70;;;7.50;;
2684;SDS011;1352;48.446;9.156;2022-11-15T09:56:38;5.50;;;5.00;;
2684;SDS011;1352;48.446;9.156;2022-11-15T09:59:18;7.63;;;5.10;;
2684;SDS011;1352;48.446;9.156;2022-11-15T10:02:01;5.33;;;4.83;;
2684;SDS011;1352;48.446;9.156;2022-11-15T10:04:44;5.80;;;5.30;;
2684;SDS011;1352;48.446;9.156;2022-11-15T10:07:13;6.20;;;5.43;;
2684;SDS011;1352;48.446;9.156;2022-11-15T10:09:47;5.57;;;5.10;;
2684;SDS011;1352;48.446;9.156;2022-11-15T10:12:18;5.10;;;4.60;;
2684;SDS011;1352;48.446;9.156;2022-11-15T10:14:47;5.70;;;5.10;;
2684;SDS011;1352;48.446;9.156;2022-11-15T10:17:21;6.30;;;5.60;;
2684;SDS011;1352;48.446;9.156;2022-11-15T10:20:02;6.40;;;5.80;;
2684;SDS011;1352;48.446;9.156;2022-11-15T10:22:40;6.33;;;5.60;;
2684;SDS011;1352;48.446;9.156;2022-11-15T10:25:16;6.47;;;5.67;;
2684;SDS011;1352;48.446;9.156;2022-11-15T10:27:53;6.47;;;5.50;;
2684;SDS011;1352;48.446;9.156;2022-11-15T10:30:23;6.90;;;6.30;;
2684;SDS011;1352;48.446;9.156;2022-11-15T10:32:58;6.57;;;5.97;;
2684;SDS011;1352;48.446;9.156;2022-11-15T10:35:36;6.07;;;5.53;;
2684;SDS011;1352;48.446;9.156;2022-11-15T10:38:04;7.90;;;6.70;;
2684;SDS011;1352;48.446;9.156;2022-11-15T10:40:33;7.23;;;6.30;;
2684;SDS011;1352;48.446;9.156;2022-11-15T10:43:05;6.43;;;5.50;;
2684;SDS011;1352;48.446;9.156;2022-11-15T10:45:41;6.77;;;5.53;;
2684;SDS011;1352;48.446;9.156;2022-11-15T10:50:53;8.13;;;5.50;;
2684;SDS011;1352;48.446;9.156;2022-11-15T10:53:26;5.67;;;4.93;;
2684;SDS011;1352;48.446;9.156;2022-11-15T10:55:58;8.93;;;6.10;;
2684;SDS011;1352;48.446;9.156;2022-11-15T10:58:33;6.30;;;5.70;;
2684;SDS011;1352;48.446;9.156;2022-11-15T11:01:14;6.83;;;5.07;;
2684;SDS011;1352;48.446;9.156;2022-11-15T11:03:44;5.63;;;5.13;;
2684;SDS011;1352;48.446;9.156;2022-11-15T11:06:12;6.17;;;5.57;;
2684;SDS011;1352;48.446;9.156;2022-11-15T11:08:41;5.07;;;4.67;;
2684;SDS011;1352;48.446;9.156;2022-11-15T11:11:22;5.97;;;5.40;;
2684;SDS011;1352;48.446;9.156;2022-11-15T11:13:49;7.87;;;6.00;;
2684;SDS011;1352;48.446;9.156;2022-11-15T11:16:37;8.50;;;7.70;;
2684;SDS011;1352;48.446;9.156;2022-11-15T11:19:18;7.80;;;7.10;;
2684;SDS011;1352;48.446;9.156;2022-11-15T11:22:01;9.40;;;7.00;;
2684;SDS011;1352;48.446;9.156;2022-11-15T11:24:36;7.53;;;6.77;;
2684;SDS011;1352;48.446;9.156;2022-11-15T11:27:18;8.77;;;7.47;;
2684;SDS011;1352;48.446;9.156;2022-11-15T11:29:57;10.37;;;7.67;;
2684;SDS011;1352;48.446;9.156;2022-11-15T11:32:49;7.97;;;7.27;;
2684;SDS011;1352;48.446;9.156;2022-11-15T11:35:30;6.83;;;6.23;;
2684;SDS011;1352;48.446;9.156;2022-11-15T11:38:10;6.80;;;6.20;;
2684;SDS011;1352;48.446;9.156;2022-11-15T11:40:51;8.37;;;7.63;;
2684;SDS011;1352;48.446;9.156;2022-11-15T11:43:27;7.40;;;6.80;;
2684;SDS011;1352;48.446;9.156;2022-11-15T11:49:08;7.73;;;6.43;;
2684;SDS011;1352;48.446;9.156;2022-11-15T11:51:38;8.10;;;7.30;;
2684;SDS011;1352;48.446;9.156;2022-11-15T11:54:11;7.33;;;6.63;;
2684;SDS011;1352;48.446;9.156;2022-11-15T11:56:46;7.90;;;6.87;;
2684;SDS011;1352;48.446;9.156;2022-11-15T11:59:16;8.80;;;6.00;;
2684;SDS011;1352;48.446;9.156;2022-11-15T12:01:49;8.23;;;7.43;;
2684;SDS011;1352;48.446;9.156;2022-11-15T12:04:20;7.33;;;6.63;;
2684;SDS011;1352;48.446;9.156;2022-11-15T12:06:53;7.50;;;6.63;;
2684;SDS011;1352;48.446;9.156;2022-11-15T12:09:27;6.33;;;5.77;;
2684;SDS011;1352;48.446;9.156;2022-11-15T12:12:00;8.00;;;6.60;;
2684;SDS011;1352;48.446;9.156;2022-11-15T12:14:35;6.00;;;5.50;;
2684;SDS011;1352;48.446;9.156;2022-11-15T12:17:09;5.90;;;5.40;;
2684;SDS011;1352;48.446;9.156;2022-11-15T12:19:39;6.90;;;6.00;;
2684;SDS011;1352;48.446;9.156;2022-11-15T12:22:10;7.27;;;6.17;;
2684;SDS011;1352;48.446;9.156;2022-11-15T12:24:43;7.07;;;6.47;;
2684;SDS011;1352;48.446;9.156;2022-11-15T12:27:17;6.17;;;5.67;;
2684;SDS011;1352;48.446;9.156;2022-11-15T12:29:55;8.43;;;6.60;;
2684;SDS011;1352;48.446;9.156;2022-11-15T12:32:26;6.60;;;5.90;;
2684;SDS011;1352;48.446;9.156;2022-11-15T12:34:57;6.67;;;6.07;;
2684;SDS011;1352;48.446;9.156;2022-11-15T12:40:32;6.30;;;5.70;;
2684;SDS011;1352;48.446;9.156;2022-11-15T12:46:12;6.07;;;5.37;;
2684;SDS011;1352;48.446;9.156;2022-11-15T12:48:50;5.20;;;4.70;;
2684;SDS011;1352;48.446;9.156;2022-11-15T12:57:49;8.33;;;6.37;;
2684;SDS011;1352;48.446;9.156;2022-11-15T13:03:24;3.47;;;3.20;;
2684;SDS011;1352;48.446;9.156;2022-11-15T13:05:57;3.60;;;3.30;;
2684;SDS011;1352;48.446;9.156;2022-11-15T13:08:41;9.30;;;2.87;;
2684;SDS011;1352;48.446;9.156;2022-11-15T13:20:17;7.03;;;3.17;;
2684;SDS011;1352;48.446;9.156;2022-11-15T13:22:47;3.40;;;2.20;;
2684;SDS011;1352;48.446;9.156;2022-11-15T13:25:19;2.70;;;2.50;;
2684;SDS011;1352;48.446;9.156;2022-11-15T13:28:18;3.27;;;2.60;;
2684;SDS011;1352;48.446;9.156;2022-11-15T13:30:50;5.83;;;2.80;;
2684;SDS011;1352;48.446;9.156;2022-11-15T13:33:22;4.80;;;2.20;;
2684;SDS011;1352;48.446;9.156;2022-11-15T13:35:51;2.57;;;2.37;;
2684;SDS011;1352;48.446;9.156;2022-11-15T13:38:25;2.07;;;1.80;;
2684;SDS011;1352;48.446;9.156;2022-11-15T13:40:55;2.80;;;1.70;;
2684;SDS011;1352;48.446;9.156;2022-11-15T13:43:26;2.43;;;1.90;;
2684;SDS011;1352;48.446;9.156;2022-11-15T13:46:04;1.97;;;1.87;;
2684;SDS011;1352;48.446;9.156;2022-11-15T13:48:33;2.77;;;1.70;;
2684;SDS011;1352;48.446;9.156;2022-11-15T13:51:00;1.90;;;1.70;;
2684;SDS011;1352;48.446;9.156;2022-11-15T13:53:30;3.97;;;2.20;;
2684;SDS011;1352;48.446;9.156;2022-11-15T13:56:00;1.60;;;1.50;;
2684;SDS011;1352;48.446;9.156;2022-11-15T13:58:29;2.10;;;1.90;;
2684;SDS011;1352;48.446;9.156;2022-11-15T14:00:59;4.67;;;1.73;;
2684;SDS011;1352;48.446;9.156;2022-11-15T14:03:28;2.03;;;1.53;;
2684;SDS011;1352;48.446;9.156;2022-11-15T14:06:02;1.23;;;1.03;;
2684;SDS011;1352;48.446;9.156;2022-11-15T14:08:32;3.13;;;1.90;;
2684;SDS011;1352;48.446;9.156;2022-11-15T14:11:09;1.83;;;1.30;;
2684;SDS011;1352;48.446;9.156;2022-11-15T14:13:41;1.70;;;1.50;;
2684;SDS011;1352;48.446;9.156;2022-11-15T14:16:33;1.53;;;1.33;;
2684;SDS011;1352;48.446;9.156;2022-11-15T14:19:02;1.33;;;1.23;;
2684;SDS011;1352;48.446;9.156;2022-11-15T14:21:30;2.53;;;1.90;;
2684;SDS011;1352;48.446;9.156;2022-11-15T14:26:44;1.30;;;1.20;;
2684;SDS011;1352;48.446;9.156;2022-11-15T14:29:21;1.97;;;1.50;;
2684;SDS011;1352;48.446;9.156;2022-11-15T14:31:49;1.47;;;1.37;;
2684;SDS011;1352;48.446;9.156;2022-11-15T14:34:16;1.77;;;1.67;;
2684;SDS011;1352;48.446;9.156;2022-11-15T14:36:43;1.10;;;1.00;;
2684;SDS011;1352;48.446;9.156;2022-11-15T14:39:11;2.27;;;1.87;;
2684;SDS011;1352;48.446;9.156;2022-11-15T14:41:38;3.03;;;2.43;;
2684;SDS011;1352;48.446;9.156;2022-11-15T14:44:09;2.03;;;1.80;;
2684;SDS011;1352;48.446;9.156;2022-11-15T14:46:37;2.33;;;2.23;;
2684;SDS011;1352;48.446;9.156;2022-11-15T14:49:04;5.03;;;2.60;;
2684;SDS011;1352;48.446;9.156;2022-11-15T14:51:31;1.83;;;1.70;;
2684;SDS011;1352;48.446;9.156;2022-11-15T14:53:59;1.60;;;1.50;;
2684;SDS011;1352;48.446;9.156;2022-11-15T14:56:26;1.23;;;1.13;;
2684;SDS011;1352;48.446;9.156;2022-11-15T14:58:53;1.70;;;1.50;;
2684;SDS011;1352;48.446;9.156;2022-11-15T15:01:23;1.73;;;1.30;;
2684;SDS011;1352;48.446;9.156;2022-11-15T15:03:52;1.97;;;1.57;;
2684;SDS011;1352;48.446;9.156;2022-11-15T15:06:22;1.87;;;1.77;;
2684;SDS011;1352;48.446;9.156;2022-11-15T15:08:49;2.03;;;1.83;;
2684;SDS011;1352;48.446;9.156;2022-11-15T15:11:18;1.90;;;1.60;;
2684;SDS011;1352;48.446;9.156;2022-11-15T15:13:48;1.70;;;1.50;;
2684;SDS011;1352;48.446;9.156;2022-11-15T15:16:15;1.73;;;1.53;;
2684;SDS011;1352;48.446;9.156;2022-11-15T15:18:43;1.90;;;1.40;;
2684;SDS011;1352;48.446;9.156;2022-11-15T15:21:16;2.30;;;1.13;;
2684;SDS011;1352;48.446;9.156;2022-11-15T15:23:48;1.30;;;1.20;;
2684;SDS011;1352;48.446;9.156;2022-11-15T15:26:15;1.40;;;1.10;;
2684;SDS011;1352;48.446;9.156;2022-11-15T15:28:42;1.00;;;1.00;;
2684;SDS011;1352;48.446;9.156;2022-11-15T15:31:10;1.20;;;1.10;;
2684;SDS011;1352;48.446;9.156;2022-11-15T15:33:38;1.47;;;1.37;;
2684;SDS011;1352;48.446;9.156;2022-11-15T15:36:09;1.47;;;1.37;;
2684;SDS011;1352;48.446;9.156;2022-11-15T15:38:38;1.90;;;1.60;;
2684;SDS011;1352;48.446;9.156;2022-11-15T15:41:08;2.23;;;1.53;;
2684;SDS011;1352;48.446;9.156;2022-11-15T15:43:36;3.17;;;1.40;;
2684;SDS011;1352;48.446;9.156;2022-11-15T15:46:04;1.43;;;1.33;;
2684;SDS011;1352;48.446;9.156;2022-11-15T15:48:34;1.30;;;1.07;;
2684;SDS011;1352;48.446;9.156;2022-11-15T15:51:03;1.17;;;1.10;;
2684;SDS011;1352;48.446;9.156;2022-11-15T15:53:32;1.30;;;1.20;;
2684;SDS011;1352;48.446;9.156;2022-11-15T15:56:00;1.40;;;1.30;;
2684;SDS011;1352;48.446;9.156;2022-11-15T15:58:27;2.70;;;1.17;;
2684;SDS011;1352;48.446;9.156;2022-11-15T16:00:54;0.90;;;0.90;;
2684;SDS011;1352;48.446;9.156;2022-11-15T16:03:21;1.17;;;1.10;;
2684;SDS011;1352;48.446;9.156;2022-11-15T16:05:49;1.67;;;1.53;;
2684;SDS011;1352;48.446;9.156;2022-11-15T16:08:18;1.20;;;1.10;;
2684;SDS011;1352;48.446;9.156;2022-11-15T16:10:48;1.80;;;1.70;;
2684;SDS011;1352;48.446;9.156;2022-11-15T16:13:15;3.20;;;1.47;;
2684;SDS011;1352;48.446;9.156;2022-11-15T16:15:43;1.33;;;1.23;;
2684;SDS011;1352;48.446;9.156;2022-11-15T16:18:14;1.90;;;1.80;;